Time;durP1;ratioP1;P1;durP2;ratioP2;P2;SDS_P1;SDS_P2;PMS_P1;PMS_P2;Temp;Humidity;BMP_temperature;BMP_pressure;BME280_temperature;BME280_humidity;BME280_pressure;Samples;Min_cycle;Max_cycle;Signal;HPM_P1;HPM_P2
2021/11/29 00:01:08;;;;;;;10.88;7.40;;;;;;;1.43;95.31;97896.03;1908387;85;20379;-77
2021/11/29 00:04:15;;;;;;;10.00;7.54;;;;;;;1.43;95.36;97897.75;1909863;85;21095;-77
2021/11/29 00:07:29;;;;;;;10.40;8.23;;;;;;;1.45;95.40;97902.06;1916606;84;20356;-76
2021/11/29 00:10:36;;;;;;;12.09;8.16;;;;;;;1.45;95.38;97904.63;1918918;84;20966;-77
2021/11/29 00:13:41;;;;;;;13.52;9.59;;;;;;;1.46;95.43;97916.56;1910091;84;20813;-77
2021/11/29 00:16:59;;;;;;;13.75;9.05;;;;;;;1.52;95.53;97914.03;1918006;84;20408;-77
2021/11/29 00:20:06;;;;;;;13.60;9.25;;;;;;;1.54;95.34;97914.03;1922422;84;20393;-77
2021/11/29 00:23:13;;;;;;;13.01;9.44;;;;;;;1.57;95.33;97931.09;1918944;84;20381;-77
2021/11/29 00:26:27;;;;;;;13.49;9.04;;;;;;;1.58;95.28;97925.16;1915309;84;20373;-77
2021/11/29 00:29:42;;;;;;;13.36;9.82;;;;;;;1.58;95.05;97922.59;1918703;84;20390;-77
2021/11/29 00:36:12;;;;;;;13.48;9.11;;;;;;;1.56;95.22;97934.50;1935015;73;20451;-78
2021/11/29 00:39:22;;;;;;;15.30;9.40;;;;;;;1.56;95.12;97934.50;1925037;84;20358;-78
2021/11/29 00:42:26;;;;;;;15.61;10.53;;;;;;;1.54;95.07;97938.75;1918670;84;20890;-78
2021/11/29 00:45:38;;;;;;;14.29;9.57;;;;;;;1.52;95.10;97937.06;1928044;84;20643;-78
2021/11/29 00:48:52;;;;;;;13.29;9.13;;;;;;;1.53;95.28;97945.56;1925977;84;20351;-78
2021/11/29 00:51:56;;;;;;;13.86;10.09;;;;;;;1.52;95.39;97949.84;1927632;84;20341;-79
2021/11/29 00:55:02;;;;;;;14.77;9.56;;;;;;;1.53;95.28;97953.25;1924739;84;20392;-78
2021/11/29 00:58:09;;;;;;;13.82;9.75;;;;;;;1.55;95.50;97956.69;1928887;84;20349;-78
2021/11/29 01:01:21;;;;;;;15.41;10.19;;;;;;;1.60;95.53;97962.69;1927352;84;34063;-78
2021/11/29 01:05:05;;;;;;;13.45;9.82;;;;;;;1.62;95.28;97963.56;1928310;84;20351;-79
2021/11/29 01:08:18;;;;;;;13.57;9.49;;;;;;;1.63;95.26;97960.16;1921744;84;20325;-78
2021/11/29 01:11:23;;;;;;;13.69;9.11;;;;;;;1.62;95.15;97967.84;1929305;84;20426;-78
2021/11/29 01:14:31;;;;;;;12.30;8.91;;;;;;;1.63;95.22;97967.84;1929400;84;20411;-78
2021/11/29 01:17:37;;;;;;;13.21;9.01;;;;;;;1.63;95.05;97977.22;1929510;84;20214;-78
2021/11/29 01:20:48;;;;;;;12.94;8.70;;;;;;;1.61;94.92;97986.56;1928587;84;20363;-78
2021/11/29 01:24:09;;;;;;;11.56;8.49;;;;;;;1.59;94.89;97993.34;1929377;84;21005;-78
2021/11/29 01:27:17;;;;;;;11.00;7.43;;;;;;;1.59;95.04;97994.22;1928676;84;20475;-78
2021/11/29 01:30:31;;;;;;;11.32;8.23;;;;;;;1.54;94.59;98003.56;1917837;84;906770;-77
2021/11/29 01:33:36;;;;;;;11.96;8.01;;;;;;;1.46;94.44;98006.06;1926169;84;20396;-76
2021/11/29 01:36:41;;;;;;;12.56;8.36;;;;;;;1.42;94.48;98013.66;1928252;84;20430;-77
2021/11/29 01:39:51;;;;;;;10.48;7.76;;;;;;;1.35;94.33;98019.56;1929138;84;20489;-76
2021/11/29 01:43:12;;;;;;;10.68;7.36;;;;;;;1.25;94.39;98016.06;1930212;84;20349;-76
2021/11/29 01:46:19;;;;;;;13.64;7.91;;;;;;;1.25;94.65;98020.31;1926379;81;165861;-76
2021/11/29 01:50:05;;;;;;;11.32;7.65;;;;;;;1.21;94.62;98030.50;1928849;84;20410;-76
2021/11/29 01:53:11;;;;;;;9.21;6.54;;;;;;;1.20;94.69;98036.47;1923748;84;20373;-76
2021/11/29 01:56:18;;;;;;;8.90;6.46;;;;;;;1.25;94.94;98041.63;1929264;84;20751;-76
2021/11/29 01:59:28;;;;;;;8.49;6.09;;;;;;;1.29;94.84;98035.72;1928579;84;20709;-76
2021/11/29 02:02:34;;;;;;;6.46;5.27;;;;;;;1.33;94.63;98037.47;1410725;84;48258035;-76
2021/11/29 02:05:52;;;;;;;7.68;5.80;;;;;;;1.29;94.39;98047.66;1930183;73;20239;-76
2021/11/29 02:08:59;;;;;;;9.40;6.24;;;;;;;1.22;94.17;98049.25;1932495;84;20368;-77
2021/11/29 02:12:19;;;;;;;8.52;5.32;;;;;;;1.18;94.19;98047.53;1929109;84;20365;-76
2021/11/29 02:15:26;;;;;;;5.85;5.00;;;;;;;1.14;94.01;98048.34;1927010;84;20373;-78
2021/11/29 02:18:45;;;;;;;8.16;4.90;;;;;;;1.08;93.92;98040.63;1916960;84;996655;-78
2021/11/29 02:21:49;;;;;;;8.44;5.41;;;;;;;1.00;93.62;98049.88;1929538;84;20333;-78
2021/11/29 02:24:56;;;;;;;5.72;4.54;;;;;;;0.98;93.67;98057.53;1930312;84;20353;-76
2021/11/29 02:28:07;;;;;;;5.20;3.75;;;;;;;0.92;93.38;98054.91;1922529;84;20357;-76
2021/11/29 02:31:22;;;;;;;4.86;3.35;;;;;;;0.84;93.31;98057.34;1929341;84;20891;-77
2021/11/29 02:34:30;;;;;;;5.28;3.85;;;;;;;0.82;93.05;98061.59;1919608;84;20492;-76
2021/11/29 02:37:44;;;;;;;4.76;3.74;;;;;;;0.79;92.67;98065.81;1925971;84;20180;-79
2021/11/29 02:40:54;;;;;;;3.89;3.45;;;;;;;0.66;92.46;98071.59;1930294;84;20361;-77
2021/11/29 02:44:10;;;;;;;4.41;3.19;;;;;;;0.55;92.51;98067.22;1930055;84;20226;-77
2021/11/29 02:47:32;;;;;;;4.19;2.78;;;;;;;0.47;92.31;98076.44;1914946;84;1232756;-77
2021/11/29 02:50:46;;;;;;;4.03;2.76;;;;;;;0.38;92.38;98081.44;1926447;84;20281;-77
2021/11/29 02:54:13;;;;;;;4.42;2.49;;;;;;;0.27;92.10;98086.38;1933183;84;20195;-77
2021/11/29 02:57:27;;;;;;;4.03;2.20;;;;;;;0.14;92.13;98091.25;1930354;84;20203;-77
2021/11/29 03:00:52;;;;;;;2.97;2.17;;;;;;;0.08;92.31;98093.72;1930337;84;20333;-77
2021/11/29 03:03:59;;;;;;;4.41;2.46;;;;;;;-0.01;92.60;98091.84;1922748;84;20362;-78
2021/11/29 03:07:09;;;;;;;2.90;2.17;;;;;;;-0.12;92.42;98096.81;1931980;84;20949;-77
2021/11/29 03:10:21;;;;;;;3.95;2.01;;;;;;;-0.18;92.81;98100.91;1932445;84;20252;-77
2021/11/29 03:13:26;;;;;;;4.06;2.17;;;;;;;-0.23;92.86;98113.59;1932949;84;20229;-78
2021/11/29 03:16:36;;;;;;;4.98;2.23;;;;;;;-0.26;93.11;98117.78;1933278;84;20883;-77
2021/11/29 03:19:49;;;;;;;4.51;2.43;;;;;;;-0.35;93.15;98121.91;1929440;84;20333;-77
2021/11/29 03:22:57;;;;;;;3.34;1.84;;;;;;;-0.45;93.20;98131.91;1933618;84;20289;-78
2021/11/29 03:26:18;;;;;;;2.84;2.30;;;;;;;-0.47;93.52;98143.78;1933750;84;20243;-78
2021/11/29 03:29:23;;;;;;;3.84;2.12;;;;;;;-0.52;93.66;98136.03;1933730;84;20241;-78
2021/11/29 03:32:34;;;;;;;2.45;2.25;;;;;;;-0.52;94.01;98136.03;1913223;84;946859;-78
2021/11/29 03:35:40;;;;;;;2.64;2.31;;;;;;;-0.55;94.03;98148.69;2000503;73;20221;-78
2021/11/29 03:39:06;;;;;;;5.50;2.52;;;;;;;-0.57;94.12;98150.38;1933692;84;20661;-78
2021/11/29 03:42:15;;;;;;;2.72;2.46;;;;;;;-0.58;94.21;98151.19;1927477;84;20243;-78
2021/11/29 03:45:23;;;;;;;4.09;2.44;;;;;;;-0.58;94.33;98151.19;1991979;73;20192;-78
2021/11/29 03:48:35;;;;;;;3.07;2.61;;;;;;;-0.56;94.65;98158.88;1932166;84;20207;-78
2021/11/29 03:52:02;;;;;;;4.76;2.67;;;;;;;-0.50;94.92;98157.31;1935256;84;20176;-78
2021/11/29 03:58:30;;;;;;;4.37;2.81;;;;;;;-0.48;94.96;98160.75;2136907;73;20434;-79
2021/11/29 04:01:40;;;;;;;2.98;2.48;;;;;;;-0.50;94.92;98166.66;1929284;84;20812;-79
2021/11/29 04:04:57;;;;;;;4.47;2.84;;;;;;;-0.53;94.94;98174.25;1929231;84;20735;-78
2021/11/29 04:08:11;;;;;;;3.70;2.71;;;;;;;-0.54;95.10;98177.59;1918312;84;20200;-79
2021/11/29 04:11:32;;;;;;;4.49;2.71;;;;;;;-0.57;94.98;98177.53;1927359;84;20208;-79
2021/11/29 04:14:42;;;;;;;3.76;2.87;;;;;;;-0.64;94.91;98179.97;1928927;84;20212;-79
2021/11/29 04:17:54;;;;;;;4.85;2.84;;;;;;;-0.66;94.94;98180.78;1913932;84;949759;-80
2021/11/29 04:21:05;;;;;;;3.72;2.79;;;;;;;-0.68;94.98;98187.56;1929247;84;20196;-79
2021/11/29 04:24:14;;;;;;;5.64;2.77;;;;;;;-0.72;94.89;98188.28;1915322;85;20186;-79
2021/11/29 04:27:22;;;;;;;3.03;2.73;;;;;;;-0.78;94.84;98191.59;1913694;85;20396;-80
2021/11/29 04:30:27;;;;;;;4.61;3.14;;;;;;;-0.81;94.87;98199.16;1909817;85;21196;-79
2021/11/29 04:33:32;;;;;;;6.06;2.71;;;;;;;-0.82;94.97;98205.09;1914208;85;20214;-78
2021/11/29 04:36:39;;;;;;;3.99;3.06;;;;;;;-0.83;94.93;98205.06;1913995;85;20198;-79
2021/11/29 04:39:44;;;;;;;2.92;2.71;;;;;;;-0.86;94.68;98216.06;1914892;85;20676;-79
2021/11/29 04:42:49;;;;;;;4.77;3.73;;;;;;;-0.95;94.25;98226.88;1920022;84;20230;-79
2021/11/29 04:46:06;;;;;;;3.08;2.64;;;;;;;-0.99;94.03;98231.88;1929066;73;100313;-79
2021/11/29 04:49:12;;;;;;;4.22;2.90;;;;;;;-1.06;94.07;98230.03;1929136;84;20222;-79
2021/11/29 04:52:19;;;;;;;4.31;3.00;;;;;;;-1.10;94.13;98240.97;1924926;84;20370;-79
2021/11/29 04:55:22;;;;;;;3.44;2.99;;;;;;;-1.11;94.36;98237.56;1924745;84;20212;-79
2021/11/29 04:58:26;;;;;;;3.57;3.00;;;;;;;-1.15;94.12;98245.97;1923627;84;20257;-79
2021/11/29 05:01:30;;;;;;;6.04;3.38;;;;;;;-1.17;94.07;98245.06;1922971;81;161862;-80
2021/11/29 05:04:35;;;;;;;6.42;3.16;;;;;;;-1.19;94.02;98248.41;1926104;84;20251;-80
2021/11/29 05:07:39;;;;;;;4.06;3.34;;;;;;;-1.21;94.04;98256.00;1926069;84;20225;-80
2021/11/29 05:10:42;;;;;;;3.69;3.19;;;;;;;-1.24;93.75;98271.22;1926483;84;20197;-79
2021/11/29 05:13:45;;;;;;;4.29;3.23;;;;;;;-1.28;93.57;98266.84;1925514;84;20221;-80
2021/11/29 05:16:49;;;;;;;4.66;3.38;;;;;;;-1.30;93.49;98277.00;1916520;84;828078;-80
2021/11/29 05:19:53;;;;;;;4.00;3.22;;;;;;;-1.31;93.43;98274.44;1925640;84;20317;-80
2021/11/29 05:22:56;;;;;;;4.77;3.08;;;;;;;-1.33;93.26;98284.56;1925743;84;20181;-80
2021/11/29 05:25:59;;;;;;;3.40;3.06;;;;;;;-1.37;93.08;98287.88;1918051;84;20212;-79
2021/11/29 05:29:03;;;;;;;4.38;3.14;;;;;;;-1.38;93.11;98288.72;1925666;84;20185;-79
2021/11/29 05:32:06;;;;;;;5.20;3.08;;;;;;;-1.42;92.89;98296.25;1924220;81;24410;-79
2021/11/29 05:35:09;;;;;;;4.17;3.52;;;;;;;-1.45;92.77;98306.31;1925299;84;20209;-80
2021/11/29 05:38:12;;;;;;;4.29;3.08;;;;;;;-1.49;92.61;98315.56;1925060;84;20269;-79
2021/11/29 05:41:14;;;;;;;4.43;3.80;;;;;;;-1.52;92.44;98318.91;1925247;84;20259;-80
2021/11/29 05:44:21;;;;;;;4.42;3.48;;;;;;;-1.48;92.77;98319.84;1923017;84;20629;-80
2021/11/29 05:47:24;;;;;;;4.26;3.22;;;;;;;-1.43;93.15;98320.84;1929853;84;20209;-80
2021/11/29 05:50:29;;;;;;;6.87;3.52;;;;;;;-1.43;93.27;98328.47;1920555;84;20208;-80
2021/11/29 05:53:32;;;;;;;6.43;3.50;;;;;;;-1.41;93.64;98334.47;1930593;84;21058;-80
2021/11/29 05:56:36;;;;;;;4.02;3.61;;;;;;;-1.37;93.77;98345.56;1929407;84;20561;-79
2021/11/29 05:59:39;;;;;;;5.74;3.84;;;;;;;-1.36;93.72;98357.47;1930751;84;20281;-79
2021/11/29 06:02:42;;;;;;;6.06;3.71;;;;;;;-1.34;93.80;98355.81;1927793;82;68555;-79
2021/11/29 06:05:45;;;;;;;3.80;3.49;;;;;;;-1.35;93.80;98370.25;1929776;84;20315;-79
2021/11/29 06:08:48;;;;;;;5.69;4.22;;;;;;;-1.30;93.98;98373.75;1930253;84;20266;-80
2021/11/29 06:11:51;;;;;;;5.64;4.77;;;;;;;-1.25;94.06;98381.53;1929486;84;20180;-80
2021/11/29 06:14:53;;;;;;;6.54;4.56;;;;;;;-1.16;94.43;98389.41;1930969;84;20196;-80
2021/11/29 06:18:01;;;;;;;5.86;4.43;;;;;;;-1.12;94.52;98382.69;1920447;84;968530;-80
2021/11/29 06:21:11;;;;;;;7.13;3.96;;;;;;;-1.04;94.82;98388.84;1920448;84;20254;-80
2021/11/29 06:24:43;;;;;;;5.94;4.79;;;;;;;-0.96;95.00;98393.31;1920691;84;20824;-81
2021/11/29 06:28:18;;;;;;;6.36;5.04;;;;;;;-0.86;95.22;98401.19;1927878;84;20218;-80
2021/11/29 06:31:24;;;;;;;8.27;4.63;;;;;;;-0.82;95.29;98401.28;1931166;84;20184;-80
2021/11/29 06:34:28;;;;;;;6.20;5.08;;;;;;;-0.78;95.21;98408.19;1927905;84;20450;-80
2021/11/29 06:37:33;;;;;;;5.64;4.34;;;;;;;-0.81;94.89;98410.66;1927683;84;20246;-80
2021/11/29 06:40:38;;;;;;;7.26;4.49;;;;;;;-0.86;94.55;98412.25;1920762;84;20204;-80
2021/11/29 06:43:41;;;;;;;7.24;4.79;;;;;;;-0.95;94.14;98412.88;1930881;84;20270;-80
2021/11/29 06:46:44;;;;;;;8.62;4.88;;;;;;;-1.03;93.80;98419.47;1918564;83;20278;-80
2021/11/29 06:49:47;;;;;;;5.19;4.56;;;;;;;-1.14;93.33;98430.19;1927381;84;20266;-80
2021/11/29 06:52:50;;;;;;;6.19;4.46;;;;;;;-1.20;93.25;98427.50;1925612;84;20330;-80
2021/11/29 06:55:56;;;;;;;5.76;4.61;;;;;;;-1.25;93.21;98435.88;1926045;84;20199;-80
2021/11/29 06:58:58;;;;;;;8.13;5.32;;;;;;;-1.31;93.04;98440.78;1926408;84;20248;-80
2021/11/29 07:02:05;;;;;;;6.46;4.40;;;;;;;-1.32;92.99;98448.38;1925381;84;20271;-80
2021/11/29 07:05:09;;;;;;;4.74;4.07;;;;;;;-1.38;92.88;98459.28;1926371;84;20736;-79
2021/11/29 07:08:12;;;;;;;8.22;4.83;;;;;;;-1.43;92.51;98473.56;1925071;84;20750;-79
2021/11/29 07:11:16;;;;;;;6.22;4.74;;;;;;;-1.48;92.59;98472.56;1925311;84;20259;-79
2021/11/29 07:14:19;;;;;;;7.10;4.66;;;;;;;-1.48;92.45;98484.41;1924708;84;20185;-79
2021/11/29 07:17:22;;;;;;;6.17;4.54;;;;;;;-1.51;92.42;98490.28;1921104;82;23737;-79
2021/11/29 07:20:24;;;;;;;7.60;5.29;;;;;;;-1.52;92.43;98491.13;1920059;85;20291;-78
2021/11/29 07:23:27;;;;;;;5.14;4.56;;;;;;;-1.54;92.46;98495.31;1919818;84;20202;-79
2021/11/29 07:26:30;;;;;;;8.50;4.89;;;;;;;-1.53;92.69;98497.88;1919988;85;20194;-79
2021/11/29 07:29:32;;;;;;;7.58;5.24;;;;;;;-1.54;92.69;98496.16;1919546;85;20195;-78
2021/11/29 07:32:35;;;;;;;5.54;4.78;;;;;;;-1.57;92.65;98503.72;1924543;81;24793;-79
2021/11/29 07:36:01;;;;;;;5.39;4.78;;;;;;;-1.57;92.89;98498.63;1919804;85;20194;-81
2021/11/29 07:39:10;;;;;;;9.20;5.02;;;;;;;-1.56;93.00;98509.66;1910814;85;21474;-78
2021/11/29 07:42:14;;;;;;;5.98;4.94;;;;;;;-1.53;93.30;98508.06;1912994;85;20186;-78
2021/11/29 07:45:16;;;;;;;8.66;5.28;;;;;;;-1.47;93.42;98516.69;1911210;82;29959;-78
2021/11/29 07:48:21;;;;;;;6.46;4.96;;;;;;;-1.44;93.46;98521.88;1907682;85;20753;-78
2021/11/29 07:51:24;;;;;;;5.81;4.90;;;;;;;-1.39;93.60;98528.84;1908572;85;20316;-78
2021/11/29 07:54:27;;;;;;;6.51;5.04;;;;;;;-1.31;93.55;98534.13;1908198;85;20237;-78
2021/11/29 07:57:29;;;;;;;7.24;5.21;;;;;;;-1.18;93.70;98535.34;1909107;85;20219;-78
2021/11/29 08:00:35;;;;;;;12.09;6.27;;;;;;;-1.06;93.74;98536.56;1908321;82;23142;-78
2021/11/29 08:03:39;;;;;;;6.97;5.61;;;;;;;-0.98;93.66;98544.41;1906334;85;20186;-77
2021/11/29 08:06:41;;;;;;;7.92;5.62;;;;;;;-0.87;93.79;98547.25;1916433;84;20985;-77
2021/11/29 08:09:44;;;;;;;8.78;5.44;;;;;;;-0.78;93.79;98548.34;1924620;84;20193;-77
2021/11/29 08:12:48;;;;;;;7.87;5.38;;;;;;;-0.70;93.55;98554.53;1921518;84;20314;-77
2021/11/29 08:15:51;;;;;;;8.18;5.29;;;;;;;-0.69;93.24;98551.16;1920024;81;24046;-78
2021/11/29 08:18:54;;;;;;;10.27;6.19;;;;;;;-0.66;93.21;98555.47;1922190;84;20229;-78
2021/11/29 08:22:18;;;;;;;8.87;6.02;;;;;;;-0.56;93.37;98562.50;1922675;84;20201;-78
2021/11/29 08:25:21;;;;;;;10.82;6.38;;;;;;;-0.41;93.24;98569.69;1923490;84;20239;-78
2021/11/29 08:28:41;;;;;;;10.20;6.64;;;;;;;-0.38;93.02;98569.78;1925827;84;20185;-82
2021/11/29 08:31:44;;;;;;;11.17;6.10;;;;;;;-0.27;93.05;98572.59;1923102;82;26036;-79
2021/11/29 08:34:47;;;;;;;8.22;6.16;;;;;;;-0.24;92.58;98573.53;1924448;84;20197;-79
2021/11/29 08:37:52;;;;;;;11.41;5.67;;;;;;;-0.25;92.38;98573.50;1925160;84;20201;-79
2021/11/29 08:40:54;;;;;;;7.12;5.49;;;;;;;-0.21;92.49;98576.16;1925834;84;21457;-79
2021/11/29 08:43:57;;;;;;;7.51;5.36;;;;;;;-0.08;92.58;98584.97;1922904;84;20247;-80
2021/11/29 08:47:02;;;;;;;9.46;5.59;;;;;;;0.17;93.00;98587.28;1926584;82;24915;-79
2021/11/29 08:50:06;;;;;;;9.81;5.72;;;;;;;0.50;92.69;98599.97;1927967;84;20696;-78
2021/11/29 08:53:29;;;;;;;8.36;5.28;;;;;;;0.81;91.86;98598.09;1931094;84;20340;-78
2021/11/29 08:56:31;;;;;;;6.70;5.21;;;;;;;1.14;91.06;98603.03;1926626;84;20397;-77
2021/11/29 08:59:34;;;;;;;7.85;6.11;;;;;;;1.43;90.14;98607.00;1926007;84;20356;-77
2021/11/29 09:02:38;;;;;;;7.20;5.03;;;;;;;1.62;88.69;98598.03;1926195;82;22133;-79
2021/11/29 09:05:46;;;;;;;7.79;4.79;;;;;;;1.90;87.24;98603.59;1927381;84;20385;-78
2021/11/29 09:08:50;;;;;;;7.22;4.38;;;;;;;2.10;86.12;98604.78;1919563;84;21894;-78
2021/11/29 09:11:59;;;;;;;7.82;4.54;;;;;;;2.06;83.91;98590.22;1922820;84;20586;-78
2021/11/29 09:15:23;;;;;;;7.53;4.54;;;;;;;2.15;83.06;98610.84;1919109;84;20270;-81
2021/11/29 09:18:33;;;;;;;4.16;3.71;;;;;;;2.51;82.66;98620.81;1928123;84;20361;-79
2021/11/29 09:21:55;;;;;;;5.80;4.46;;;;;;;2.87;82.45;98619.59;1921561;84;20556;-79
2021/11/29 09:25:23;;;;;;;8.13;3.90;;;;;;;2.93;80.95;98633.38;1899679;85;20404;-80
2021/11/29 09:42:16;;;;;;;5.74;3.76;;;;;;;2.31;82.25;98661.47;1932898;73;20353;-78
2021/11/29 10:05:22;;;;;;;4.13;3.26;;;;;;;2.28;83.77;98668.25;2096195;73;20372;-79
2021/11/29 10:08:35;;;;;;;5.56;3.38;;;;;;;2.38;83.76;98681.25;1931192;84;20378;-78
2021/11/29 10:49:07;;;;;;;3.10;2.90;;;;;;;2.95;80.27;98688.13;1919992;84;20501;-79
2021/11/29 10:56:23;;;;;;;3.38;3.06;;;;;;;2.84;80.11;98691.34;1936068;73;20369;-78
2021/11/29 10:59:35;;;;;;;5.96;3.13;;;;;;;2.83;80.46;98699.88;1930797;84;20504;-78
2021/11/29 11:02:44;;;;;;;5.76;3.05;;;;;;;2.89;81.01;98697.44;1920647;84;20914;-78
2021/11/29 11:10:09;;;;;;;3.67;2.83;;;;;;;3.08;80.71;98696.00;1934024;73;20491;-78
2021/11/29 11:13:36;;;;;;;5.44;3.49;;;;;;;3.22;80.71;98690.19;1920414;84;20188;-78
2021/11/29 11:17:50;;;;;;;2.92;2.69;;;;;;;3.40;80.64;98687.00;1929412;84;20559;-79
2021/11/29 11:21:54;;;;;;;11.09;2.85;;;;;;;3.54;80.48;98695.72;1931414;84;20389;-78
2021/11/29 11:30:49;;;;;;;3.28;2.17;;;;;;;3.78;78.51;98697.75;1905180;84;20358;-79
2021/11/29 11:34:38;;;;;;;3.06;2.03;;;;;;;3.91;77.48;98699.59;1911636;85;20377;-79
2021/11/29 11:39:04;;;;;;;4.61;2.46;;;;;;;3.86;77.00;98693.53;1914512;84;20347;-79
2021/11/29 11:43:11;;;;;;;4.68;2.50;;;;;;;3.79;76.58;98699.47;1902984;85;20394;-78
2021/11/29 11:47:07;;;;;;;4.07;2.20;;;;;;;3.70;75.66;98704.47;1902722;85;20407;-78
2021/11/29 11:54:49;;;;;;;4.34;2.17;;;;;;;3.54;76.63;98706.00;1902394;85;20375;-78
2021/11/29 11:58:18;;;;;;;3.69;2.36;;;;;;;3.49;76.70;98704.22;1903017;85;20858;-78
2021/11/29 12:02:11;;;;;;;2.95;2.58;;;;;;;3.49;77.25;98709.38;1900240;83;20442;-82
2021/11/29 12:06:20;;;;;;;4.21;2.75;;;;;;;3.36;77.48;98700.63;1903154;85;20245;-79
2021/11/29 12:10:21;;;;;;;4.35;2.42;;;;;;;3.39;78.20;98705.81;1902220;85;20478;-79
2021/11/29 12:13:43;;;;;;;5.66;2.91;;;;;;;3.43;78.22;98710.16;1911549;85;20366;-77
2021/11/29 12:17:30;;;;;;;4.18;2.61;;;;;;;3.50;78.46;98703.38;1909026;85;20389;-77
2021/11/29 12:21:22;;;;;;;4.18;2.90;;;;;;;3.54;78.03;98705.13;1930033;84;20381;-77
2021/11/29 12:24:47;;;;;;;4.70;3.24;;;;;;;3.56;77.72;98700.88;1929152;84;21012;-78
2021/11/29 12:28:02;;;;;;;5.80;2.53;;;;;;;3.51;77.40;98703.41;1930895;84;20367;-79
2021/11/29 12:31:37;;;;;;;9.43;3.56;;;;;;;3.51;78.05;98697.41;1926511;81;57267;-78
2021/11/29 12:34:43;;;;;;;4.86;2.85;;;;;;;3.60;78.35;98697.53;1927183;84;20460;-78
2021/11/29 12:38:02;;;;;;;3.78;2.58;;;;;;;3.54;77.12;98713.69;1930413;84;20381;-78
2021/11/29 12:41:07;;;;;;;3.54;2.31;;;;;;;3.59;77.57;98712.06;1920424;84;20345;-78
2021/11/29 12:44:11;;;;;;;4.18;2.61;;;;;;;3.58;77.02;98702.63;1931362;84;20441;-78
2021/11/29 12:47:19;;;;;;;3.31;2.63;;;;;;;3.64;77.07;98707.84;1926685;81;30611;-78
2021/11/29 12:50:42;;;;;;;3.71;2.39;;;;;;;3.79;77.13;98703.75;1932047;84;20464;-78
2021/11/29 12:53:45;;;;;;;2.99;2.01;;;;;;;3.89;77.02;98710.69;1931177;84;20217;-79
2021/11/29 12:57:21;;;;;;;2.53;1.73;;;;;;;4.05;76.69;98725.44;1930731;84;20454;-79
2021/11/29 13:00:25;;;;;;;2.76;1.88;;;;;;;4.04;75.40;98713.44;1932147;81;23169;-79
2021/11/29 13:03:29;;;;;;;4.82;2.04;;;;;;;3.91;73.84;98725.25;1932878;84;20532;-78
2021/11/29 13:06:52;;;;;;;2.61;1.64;;;;;;;3.83;74.16;98733.75;1930922;84;20390;-78
2021/11/29 13:09:55;;;;;;;2.63;1.86;;;;;;;3.73;74.36;98731.88;1931466;84;20844;-78
2021/11/29 13:13:22;;;;;;;2.63;2.15;;;;;;;3.70;74.79;98730.16;1928143;84;20449;-78
2021/11/29 13:16:24;;;;;;;2.64;2.29;;;;;;;3.79;74.63;98739.69;1930794;81;25183;-78
2021/11/29 13:19:38;;;;;;;2.78;1.65;;;;;;;3.93;75.29;98743.25;1931914;84;20349;-79
2021/11/29 13:22:44;;;;;;;3.10;2.00;;;;;;;3.92;75.02;98738.97;1931909;84;20394;-78
2021/11/29 13:25:46;;;;;;;1.70;1.48;;;;;;;3.96;75.17;98743.31;1932413;84;21139;-78
2021/11/29 13:28:54;;;;;;;2.76;1.90;;;;;;;3.88;74.98;98739.78;1930979;84;20373;-78
2021/11/29 13:32:00;;;;;;;2.36;1.61;;;;;;;3.85;75.26;98732.91;1928580;81;30335;-78
2021/11/29 13:35:05;;;;;;;1.77;1.65;;;;;;;3.82;75.76;98740.59;1931442;84;20220;-78
2021/11/29 13:38:08;;;;;;;2.10;1.58;;;;;;;3.70;75.24;98739.56;1928678;84;20369;-78
2021/11/29 13:41:19;;;;;;;2.47;1.50;;;;;;;3.64;75.09;98732.66;1931610;84;20357;-78
2021/11/29 13:44:28;;;;;;;3.34;1.70;;;;;;;3.72;75.72;98745.56;1932976;84;20470;-78
2021/11/29 13:47:37;;;;;;;3.32;1.71;;;;;;;3.70;75.89;98740.44;1925726;81;23674;-78
2021/11/29 13:50:41;;;;;;;;;;;;;;;3.72;75.71;98745.56;1926712;84;21042;-78
2021/11/29 13:53:45;;;;;;;2.53;1.90;;;;;;;3.66;75.92;98748.94;1927427;84;20885;-78
2021/11/29 13:56:48;;;;;;;4.30;2.04;;;;;;;3.56;75.60;98759.91;1926585;84;20346;-78
2021/11/29 13:59:50;;;;;;;2.64;1.80;;;;;;;3.54;75.81;98774.44;1928801;84;20447;-78
2021/11/29 14:03:25;;;;;;;4.22;2.16;;;;;;;3.50;76.92;98778.66;1922813;81;24146;-78
2021/11/29 14:06:28;;;;;;;2.35;1.77;;;;;;;3.43;76.54;98770.88;1923091;84;20646;-78
2021/11/29 14:09:51;;;;;;;3.11;1.80;;;;;;;3.39;76.93;98761.38;1931715;84;20367;-80
2021/11/29 14:12:54;;;;;;;2.61;1.55;;;;;;;3.33;76.86;98762.19;1930562;84;20372;-78
2021/11/29 14:16:08;;;;;;;2.41;1.76;;;;;;;3.27;77.15;98767.22;1930310;81;23675;-77
2021/11/29 14:19:13;;;;;;;3.16;1.70;;;;;;;3.22;77.47;98761.16;1932004;84;20369;-79
2021/11/29 14:22:16;;;;;;;1.84;1.58;;;;;;;3.22;78.05;98772.28;1933628;84;20357;-78
2021/11/29 14:25:20;;;;;;;1.91;1.44;;;;;;;3.18;77.98;98778.19;1931016;84;20337;-78
2021/11/29 14:28:22;;;;;;;3.84;1.85;;;;;;;3.19;78.22;98787.63;1926609;84;20838;-78
2021/11/29 14:31:34;;;;;;;1.79;1.61;;;;;;;3.13;78.12;98786.69;1931189;84;20428;-78
2021/11/29 14:34:44;;;;;;;3.01;1.40;;;;;;;3.10;78.67;98784.94;1928459;84;20354;-78
2021/11/29 14:37:46;;;;;;;3.31;1.49;;;;;;;3.11;79.02;98788.34;1932039;84;20426;-78
2021/11/29 14:41:00;;;;;;;4.38;1.54;;;;;;;3.10;78.94;98795.19;1921058;84;20367;-78
2021/11/29 14:44:03;;;;;;;1.77;1.59;;;;;;;3.09;79.09;98813.13;1927278;84;21050;-78
2021/11/29 14:47:20;;;;;;;4.03;1.39;;;;;;;3.09;79.22;98818.25;1931032;81;23352;-78
2021/11/29 14:50:35;;;;;;;2.33;1.15;;;;;;;3.08;79.40;98817.38;1931686;84;20363;-78
2021/11/29 14:53:40;;;;;;;2.99;1.20;;;;;;;3.08;79.42;98819.97;1932880;84;20365;-78
2021/11/29 14:56:45;;;;;;;2.38;1.30;;;;;;;3.09;79.55;98821.69;1930813;84;20351;-78
2021/11/29 14:59:59;;;;;;;3.31;1.40;;;;;;;3.07;79.72;98814.81;1931823;84;20396;-78
2021/11/29 15:03:18;;;;;;;2.41;1.42;;;;;;;3.02;80.10;98819.84;1931654;81;29939;-78
2021/11/29 15:06:24;;;;;;;;;;;;;;;2.99;80.53;98832.63;1928612;84;20398;-79
2021/11/29 15:09:34;;;;;;;2.22;1.10;;;;;;;2.98;80.74;98838.59;1930985;84;20651;-79
2021/11/29 15:12:40;;;;;;;4.03;1.34;;;;;;;2.92;80.70;98836.78;1932529;84;21502;-79
2021/11/29 15:15:43;;;;;;;1.38;1.15;;;;;;;2.86;81.30;98840.94;1927396;81;22148;-78
2021/11/29 15:18:46;;;;;;;3.00;1.31;;;;;;;2.83;82.07;98838.31;1927394;84;20442;-78
2021/11/29 15:21:55;;;;;;;2.28;0.79;;;;;;;2.75;82.85;98840.75;1927842;84;20416;-79
2021/11/29 15:25:07;;;;;;;1.50;1.00;;;;;;;2.70;83.05;98833.00;1917668;84;21561;-79
2021/11/29 15:28:42;;;;;;;2.85;1.23;;;;;;;2.70;83.50;98842.38;1923941;84;20828;-79
2021/11/29 15:32:01;;;;;;;3.50;1.83;;;;;;;2.64;83.71;98840.56;1927651;84;20180;-78
2021/11/29 15:35:34;;;;;;;2.18;1.23;;;;;;;2.62;83.98;98839.66;1927394;84;20747;-79
2021/11/29 15:38:58;;;;;;;3.83;1.15;;;;;;;2.57;84.32;98841.28;1930097;84;20284;-79
2021/11/29 15:42:01;;;;;;;2.84;0.95;;;;;;;2.57;84.21;98856.66;1926002;84;20446;-79
2021/11/29 15:45:15;;;;;;;2.50;1.10;;;;;;;2.55;84.45;98854.91;1914736;84;20342;-78
2021/11/29 15:48:22;;;;;;;2.78;1.20;;;;;;;2.54;84.94;98861.75;1931608;82;23418;-78
2021/11/29 15:51:30;;;;;;;2.90;1.10;;;;;;;2.54;84.53;98856.63;1930404;84;20353;-78
2021/11/29 15:54:33;;;;;;;4.02;1.21;;;;;;;2.57;84.64;98866.06;1931430;84;20389;-78
2021/11/29 15:57:36;;;;;;;3.56;1.70;;;;;;;2.58;84.53;98870.34;1928750;84;20188;-78
2021/11/29 16:00:38;;;;;;;4.45;1.48;;;;;;;2.53;83.82;98877.09;1926633;82;25136;-79
2021/11/29 16:03:43;;;;;;;2.46;1.15;;;;;;;2.55;83.83;98875.41;1927070;84;20499;-79
2021/11/29 16:06:46;;;;;;;1.98;1.30;;;;;;;2.56;83.83;98883.13;1927371;84;20356;-79
2021/11/29 16:09:50;;;;;;;3.06;1.45;;;;;;;2.56;83.88;98895.94;1932295;84;20442;-79
2021/11/29 16:12:55;;;;;;;3.08;1.40;;;;;;;2.58;83.86;98884.00;1931991;84;20403;-79
2021/11/29 16:15:58;;;;;;;3.14;1.71;;;;;;;2.58;83.34;98895.97;1920855;81;30233;-79
2021/11/29 16:19:01;;;;;;;2.89;1.52;;;;;;;2.58;83.44;98909.66;1930175;84;20391;-79
2021/11/29 16:22:05;;;;;;;2.72;1.74;;;;;;;2.54;83.40;98912.13;1918138;84;20410;-79
2021/11/29 16:25:08;;;;;;;5.32;2.21;;;;;;;2.56;83.77;98920.69;1928474;84;20366;-79
2021/11/29 16:28:13;;;;;;;2.85;1.50;;;;;;;2.55;83.92;98924.97;1934202;84;20330;-79
2021/11/29 16:31:16;;;;;;;3.61;1.99;;;;;;;2.53;83.75;98931.75;1927162;81;24152;-79
2021/11/29 16:34:19;;;;;;;3.66;1.80;;;;;;;2.55;84.00;98934.34;1922458;84;21362;-79
2021/11/29 16:37:23;;;;;;;3.09;1.96;;;;;;;2.53;83.82;98936.88;1928535;84;20372;-79
2021/11/29 16:53:40;;;;;;;2.85;1.44;;;;;;;2.50;83.76;98956.44;1931257;84;20345;-79